Hauptseite
METAR-TAF:

METAR-TAF

Flughäfen :

Verkehrslandeplatz Hof-Plauen

Hof, Deutschland

Breite: 50-19N, Länge: 011-53E, Höhe: 567 m

Beobachtung

Neuester Wetterbericht von vor 31 Stunden und 41 Minuten, um 15:50 UTC
Wind 6 kt aus Nord/Nordwest, variierte zwischen West/Nordwest und Nord/Nordost
Temperatur 28°C
Luftfeuchtigkeit 25%
Luftdruck 1016 hPa
Sichtweite 10 km oder mehr
keine Wolken unter 1500 m und keine Kumulonimbus oder Gewitterwolken

METAR: EDQM 171550Z 34006KT 290V030 CAVOK 28/06 Q1016

Zeit: 01:31 (23:31 UTC)

Prognose

Neuester Wetterbericht von vor 6 Stunden und 31 Minuten, um 17:00 UTC
Gültige Prognose vom 21 um 18 UTC bis 22 um 03 UTC
Wind 7 kt aus Nordost
Sichtweite 10 km oder mehr
Leicht bewölkt in der Höhe von 4000 ft
Übergehend zu
vom 21 um 19 UTC bis 21 um 21 UTC
Wind 3 kt aus unterschiedlichen Richtungen

TAF: EDQM 211700Z 2118/2203 04007KT 9999 FEW040 BECMG 2119/2121 VRB03KT

Wetterbeobachtungen und Prognosen von mehr als 4000 Flughäfen (METAR und TAF Bericht).

Die verfügbaren Stationen werden durch gelbe und rote Markierungen auf der Karte dargestellt.

Führen Sie die Maus auf sie, um den Namen der Station zu sehen.

Darauf klicken, um die Beobachtung von Wetterbeobachtungen und Prognosen zu sehen.

Um die Karte zu ändern : klicken Sie auf den grünen Tasten mit einem schwarzen Kreuz Zum Vergrößern, auf den grünen Button mit einem Gedankenstrich zu verkleinern, oder auf die grünen Pfeile für benachbarte Karten.


METAR-TAF: